Darnestown, Maryland
Current Conditions -  °F | °C
As of 11:35 AM on Saturday 25 Oct 2014 (Local Time) from KGAI Reporting Station
Clear Clear  
Wind Chill: 17°   Ceiling: Unl
Heat Index: 17°   Visibility: 10mi
Dew Point:   Wind: 7mph
Humidity: 48%   Direction: 250°WSW
Pressure: 29.96"   Gusts: NA
Location:  39.1148°N, 77.252°W
Report Text: KGAI 251535Z 25006KT 10SM CLR 17/06 A2996 RMK AO1
Loading
Personal Weather Stations






























Interactive Weather Map
Tropical Storm Tracking
New forecast layout! Learn more

10-Day Weather Forecast

Advertisements
Track Severe Weather on mobile